Time;durP1;ratioP1;P1;durP2;ratioP2;P2;SDS_P1;SDS_P2;PMS_P1;PMS_P2;Temp;Humidity;BMP_temperature;BMP_pressure;BME280_temperature;BME280_humidity;BME280_pressure;Samples;Min_cycle;Max_cycle;Signal;HPM_P1;HPM_P2
2023/04/23 00:00:04;;;;;;;26.65;19.95;;;10.10;99.90;;;;;;5093633;28;20124;-70
2023/04/23 00:02:32;;;;;;;25.85;18.65;;;10.00;99.90;;;;;;5112932;28;20036;-70
2023/04/23 00:05:03;;;;;;;25.63;17.98;;;10.00;99.90;;;;;;5114398;28;20046;-70
2023/04/23 00:07:32;;;;;;;24.83;17.30;;;9.90;99.90;;;;;;5094563;28;20031;-70
2023/04/23 00:09:59;;;;;;;26.70;18.70;;;9.90;99.90;;;;;;5107422;28;20484;-71
2023/04/23 00:12:25;;;;;;;25.75;18.25;;;9.90;99.90;;;;;;5093817;28;20043;-70
2023/04/23 00:14:51;;;;;;;25.48;17.98;;;9.90;99.90;;;;;;5076646;28;20032;-70
2023/04/23 00:17:18;;;;;;;27.92;18.63;;;9.90;99.90;;;;;;5101122;28;20039;-70
2023/04/23 00:19:44;;;;;;;25.67;18.70;;;9.80;99.90;;;;;;5113768;28;20043;-70
2023/04/23 00:22:10;;;;;;;27.27;18.83;;;9.90;99.90;;;;;;5094847;28;20043;-70
2023/04/23 00:24:37;;;;;;;25.90;17.52;;;9.90;99.90;;;;;;5113694;28;20055;-70
2023/04/23 00:27:03;;;;;;;26.00;18.23;;;9.90;99.90;;;;;;5106565;28;20044;-70
2023/04/23 00:29:29;;;;;;;25.55;17.90;;;9.90;99.90;;;;;;5109496;27;20036;-70
2023/04/23 00:31:54;;;;;;;28.23;18.92;;;9.80;99.90;;;;;;5075783;28;20051;-70
2023/04/23 00:34:20;;;;;;;26.05;17.45;;;9.80;99.90;;;;;;5109457;28;20036;-71
2023/04/23 00:36:45;;;;;;;26.85;17.58;;;9.80;99.90;;;;;;5075944;28;20084;-71
2023/04/23 00:39:11;;;;;;;25.67;17.73;;;9.80;99.90;;;;;;5076213;28;20496;-70
2023/04/23 00:41:37;;;;;;;24.83;17.38;;;9.80;99.90;;;;;;5093009;28;20472;-70
2023/04/23 00:44:02;;;;;;;26.30;17.52;;;9.80;99.90;;;;;;5093166;28;20553;-70
2023/04/23 00:46:28;;;;;;;26.98;17.80;;;9.70;99.90;;;;;;5076004;28;20047;-69
2023/04/23 00:48:54;;;;;;;25.58;17.33;;;9.60;99.90;;;;;;5090744;28;20042;-69
2023/04/23 00:51:23;;;;;;;26.35;18.67;;;9.70;99.90;;;;;;5110737;28;21637;-70
2023/04/23 00:53:49;;;;;;;27.00;17.88;;;9.60;99.90;;;;;;5083319;28;20196;-70
2023/04/23 00:56:16;;;;;;;27.27;17.30;;;9.60;99.90;;;;;;5095007;28;20052;-70
2023/04/23 00:58:42;;;;;;;25.10;17.63;;;9.60;99.90;;;;;;5111741;28;20075;-70
2023/04/23 01:01:08;;;;;;;27.25;18.02;;;9.70;99.90;;;;;;5113347;28;20047;-70
2023/04/23 01:03:36;;;;;;;25.33;17.40;;;9.60;99.90;;;;;;5112400;28;20036;-71
2023/04/23 01:06:02;;;;;;;26.05;18.00;;;9.60;99.90;;;;;;5077199;28;20089;-70
2023/04/23 01:08:30;;;;;;;23.83;17.25;;;9.60;99.90;;;;;;5106080;28;20088;-70
2023/04/23 01:10:57;;;;;;;26.25;17.27;;;9.60;99.90;;;;;;5091325;28;20470;-70
2023/04/23 01:13:25;;;;;;;24.73;17.58;;;9.50;99.90;;;;;;5092439;28;20032;-71
2023/04/23 01:15:51;;;;;;;24.35;17.75;;;9.50;99.90;;;;;;5079739;28;20038;-70
2023/04/23 01:18:18;;;;;;;27.67;18.27;;;9.50;99.90;;;;;;5111520;28;20503;-70
2023/04/23 01:20:44;;;;;;;25.38;17.95;;;9.50;99.90;;;;;;5095778;28;20122;-70
2023/04/23 01:23:10;;;;;;;26.48;18.77;;;9.40;99.90;;;;;;5121081;27;20130;-70
2023/04/23 01:25:36;;;;;;;27.13;18.70;;;9.40;99.90;;;;;;5092381;28;20123;-70
2023/04/23 01:28:03;;;;;;;24.77;17.33;;;9.30;99.90;;;;;;5075072;28;20124;-70
2023/04/23 01:30:29;;;;;;;26.23;18.45;;;9.30;99.90;;;;;;5113637;27;20161;-70
2023/04/23 01:32:56;;;;;;;23.98;17.65;;;9.30;99.90;;;;;;5110422;28;20111;-70
2023/04/23 01:35:23;;;;;;;23.23;17.63;;;9.20;99.90;;;;;;5088788;28;20476;-70
2023/04/23 01:37:53;;;;;;;23.63;17.15;;;9.20;99.90;;;;;;5086698;28;20060;-70
2023/04/23 01:40:20;;;;;;;25.98;17.73;;;9.20;99.90;;;;;;5099912;28;20031;-70
2023/04/23 01:42:46;;;;;;;23.05;17.15;;;9.20;99.90;;;;;;5095387;28;20078;-70
2023/04/23 01:45:12;;;;;;;22.17;15.73;;;9.30;99.90;;;;;;5110414;28;20050;-70
2023/04/23 01:47:40;;;;;;;23.33;16.35;;;9.30;99.90;;;;;;5129688;27;20039;-70
2023/04/23 01:50:06;;;;;;;24.05;17.33;;;9.30;99.90;;;;;;5125337;27;20035;-71
2023/04/23 01:52:32;;;;;;;26.20;18.83;;;9.20;99.90;;;;;;5092086;28;20047;-70
2023/04/23 01:54:57;;;;;;;25.73;18.75;;;9.20;99.90;;;;;;5109007;28;20035;-70
2023/04/23 01:57:25;;;;;;;27.60;19.33;;;9.10;99.90;;;;;;5116411;28;20055;-70
2023/04/23 01:59:51;;;;;;;27.95;19.45;;;9.10;99.90;;;;;;5104641;28;20032;-70
2023/04/23 02:02:18;;;;;;;26.17;19.00;;;9.00;99.90;;;;;;5102015;28;20123;-70
2023/04/23 02:04:44;;;;;;;28.13;19.48;;;9.00;99.90;;;;;;5105977;28;20044;-70
2023/04/23 02:07:10;;;;;;;28.23;20.70;;;9.00;99.90;;;;;;5081957;28;20464;-70
2023/04/23 02:09:36;;;;;;;30.25;20.88;;;9.00;99.90;;;;;;5099988;28;20059;-70
2023/04/23 02:12:02;;;;;;;29.13;20.58;;;9.00;99.90;;;;;;5095230;28;20032;-70
2023/04/23 02:14:28;;;;;;;29.98;21.30;;;9.00;99.90;;;;;;5092344;28;20402;-70
2023/04/23 02:16:54;;;;;;;31.83;21.88;;;8.90;99.90;;;;;;5086639;28;20282;-70
2023/04/23 02:19:20;;;;;;;33.47;22.50;;;9.00;99.90;;;;;;5081754;28;20046;-70
2023/04/23 02:21:46;;;;;;;31.00;21.73;;;9.00;99.90;;;;;;5090164;28;20488;-70
2023/04/23 02:24:12;;;;;;;30.90;23.02;;;9.00;99.90;;;;;;5108714;28;20069;-70
2023/04/23 02:26:37;;;;;;;37.58;25.33;;;9.00;99.90;;;;;;5093128;28;20043;-70
2023/04/23 02:29:03;;;;;;;36.17;23.88;;;9.00;99.90;;;;;;5079424;28;20047;-70
2023/04/23 02:31:29;;;;;;;35.35;23.58;;;9.00;99.90;;;;;;5115737;28;20036;-70
2023/04/23 02:33:54;;;;;;;34.13;23.35;;;8.90;99.90;;;;;;5129186;28;20574;-70
2023/04/23 02:36:20;;;;;;;33.53;22.33;;;8.90;99.90;;;;;;5103583;28;20047;-71
2023/04/23 02:38:48;;;;;;;31.98;22.13;;;8.90;99.90;;;;;;5087396;28;20399;-70
2023/04/23 02:41:13;;;;;;;32.67;21.88;;;8.80;99.90;;;;;;5091730;28;20086;-70
2023/04/23 02:43:39;;;;;;;30.27;21.05;;;8.80;99.90;;;;;;5114003;28;20031;-70
2023/04/23 02:46:08;;;;;;;32.40;21.98;;;8.80;99.90;;;;;;5094957;28;20040;-70
2023/04/23 02:48:38;;;;;;;34.83;21.92;;;8.80;99.90;;;;;;5090393;28;20040;-70
2023/04/23 02:51:05;;;;;;;34.90;23.00;;;8.80;99.90;;;;;;5076047;28;20040;-70
2023/04/23 02:53:31;;;;;;;35.10;23.40;;;8.80;99.90;;;;;;5103640;28;20039;-70
2023/04/23 02:55:56;;;;;;;37.30;24.25;;;8.80;99.90;;;;;;5085060;28;20074;-70
2023/04/23 02:58:22;;;;;;;33.45;22.77;;;8.80;99.90;;;;;;5094674;28;20043;-70
2023/04/23 03:00:47;;;;;;;35.58;22.95;;;8.80;99.90;;;;;;5080931;28;20047;-70
2023/04/23 03:03:13;;;;;;;33.17;22.40;;;8.80;99.90;;;;;;5107601;28;20048;-70
2023/04/23 03:05:39;;;;;;;36.63;23.58;;;8.80;99.90;;;;;;5100304;28;20046;-70
2023/04/23 03:08:05;;;;;;;37.17;23.73;;;8.80;99.90;;;;;;5077301;28;20513;-70
2023/04/23 03:10:30;;;;;;;35.03;23.55;;;8.90;99.90;;;;;;5103329;28;20032;-70
2023/04/23 03:12:56;;;;;;;37.17;24.45;;;8.90;99.90;;;;;;5122317;27;20509;-70
2023/04/23 03:15:22;;;;;;;37.72;24.10;;;8.80;99.90;;;;;;5104702;27;20392;-70
2023/04/23 03:17:47;;;;;;;37.85;23.60;;;8.80;99.90;;;;;;5093633;28;20526;-70
2023/04/23 03:20:13;;;;;;;37.78;23.67;;;8.80;99.90;;;;;;5089363;27;20040;-71
2023/04/23 03:22:39;;;;;;;36.50;22.92;;;8.70;99.90;;;;;;5102736;28;20040;-70
2023/04/23 03:25:05;;;;;;;33.35;22.52;;;8.70;99.90;;;;;;5121369;27;20154;-71
2023/04/23 03:27:31;;;;;;;32.25;21.63;;;8.60;99.90;;;;;;5090481;28;20032;-70
2023/04/23 03:29:57;;;;;;;29.40;20.58;;;8.60;99.90;;;;;;5094045;28;20032;-70
2023/04/23 03:32:23;;;;;;;32.15;21.50;;;8.50;99.90;;;;;;5096428;28;20039;-70
2023/04/23 03:34:49;;;;;;;32.25;22.23;;;8.50;99.90;;;;;;5098021;28;20391;-70
2023/04/23 03:37:15;;;;;;;32.70;22.17;;;8.40;99.90;;;;;;5111124;28;20035;-70
2023/04/23 03:39:41;;;;;;;31.95;21.05;;;8.40;99.90;;;;;;5104377;28;20134;-70
2023/04/23 03:42:06;;;;;;;31.63;22.00;;;8.40;99.90;;;;;;5109011;28;20575;-70
2023/04/23 03:44:32;;;;;;;32.97;21.60;;;8.40;99.90;;;;;;5098669;28;20039;-70
2023/04/23 03:46:57;;;;;;;32.22;21.90;;;8.40;99.90;;;;;;5107877;27;20093;-70
2023/04/23 03:49:25;;;;;;;34.33;22.10;;;8.40;99.90;;;;;;5077842;28;20032;-70
2023/04/23 03:51:51;;;;;;;38.90;23.83;;;8.40;99.90;;;;;;5096309;28;20396;-70
2023/04/23 03:54:17;;;;;;;38.60;25.20;;;8.50;99.90;;;;;;5119853;27;20028;-70
2023/04/23 03:56:43;;;;;;;37.67;25.05;;;8.50;99.90;;;;;;5091551;28;20124;-70
2023/04/23 03:59:08;;;;;;;39.88;25.35;;;8.40;99.90;;;;;;5102866;28;20500;-70
2023/04/23 04:01:35;;;;;;;40.03;26.67;;;8.40;99.90;;;;;;5089544;28;20111;-70
2023/04/23 04:04:01;;;;;;;42.20;27.33;;;8.50;99.90;;;;;;5107725;28;20491;-70
2023/04/23 04:06:26;;;;;;;42.75;27.63;;;8.50;99.90;;;;;;5080617;28;20032;-70
2023/04/23 04:08:52;;;;;;;46.80;29.13;;;8.60;99.90;;;;;;5092550;28;20036;-70
2023/04/23 04:11:17;;;;;;;46.83;29.15;;;8.60;99.90;;;;;;5096530;27;20114;-70
2023/04/23 04:13:43;;;;;;;48.28;29.65;;;8.60;99.90;;;;;;5097624;28;20153;-69
2023/04/23 04:16:09;;;;;;;48.80;31.40;;;8.60;99.90;;;;;;5129125;27;20046;-69
2023/04/23 04:18:34;;;;;;;49.22;30.23;;;8.60;99.90;;;;;;5093799;28;20043;-70
2023/04/23 04:21:00;;;;;;;47.67;30.75;;;8.70;99.90;;;;;;5098590;28;20043;-70
2023/04/23 04:23:25;;;;;;;52.42;32.75;;;8.70;99.90;;;;;;5103537;28;20046;-70
2023/04/23 04:25:55;;;;;;;49.22;32.45;;;8.60;99.90;;;;;;5079513;28;20470;-70
2023/04/23 04:28:20;;;;;;;50.42;31.42;;;8.60;99.90;;;;;;5098203;28;20155;-70
2023/04/23 04:30:49;;;;;;;48.72;29.15;;;8.50;99.90;;;;;;5087967;28;20115;-70
2023/04/23 04:33:15;;;;;;;59.58;34.97;;;8.60;99.90;;;;;;5104845;28;20525;-69
2023/04/23 04:35:41;;;;;;;50.35;31.55;;;8.60;99.90;;;;;;5100853;28;20404;-70
2023/04/23 04:38:07;;;;;;;52.33;32.10;;;8.70;99.90;;;;;;5100137;28;20051;-70
2023/04/23 04:40:33;;;;;;;55.33;34.80;;;8.70;99.90;;;;;;5088773;28;20044;-70
2023/04/23 04:42:59;;;;;;;54.55;33.97;;;8.70;99.90;;;;;;5108577;28;20067;-70
2023/04/23 04:45:24;;;;;;;55.72;34.88;;;8.60;99.90;;;;;;5103362;28;20070;-70
2023/04/23 04:47:51;;;;;;;57.28;35.00;;;8.60;99.90;;;;;;5075501;28;20040;-70
2023/04/23 04:50:16;;;;;;;56.63;35.90;;;8.70;99.90;;;;;;5090655;28;20024;-70
2023/04/23 04:52:42;;;;;;;52.53;32.85;;;8.70;99.90;;;;;;5100807;27;20035;-69
2023/04/23 04:55:08;;;;;;;61.25;37.67;;;8.70;99.90;;;;;;5087802;28;20039;-69
2023/04/23 04:57:34;;;;;;;62.63;36.10;;;8.80;99.90;;;;;;5091078;28;20044;-69
2023/04/23 05:00:17;;;;;;;61.13;37.22;;;8.90;99.90;;;;;;5077655;28;20047;-69
2023/04/23 05:02:43;;;;;;;59.75;36.78;;;8.80;99.90;;;;;;5102986;28;20035;-69
2023/04/23 05:05:08;;;;;;;57.17;31.42;;;8.90;99.90;;;;;;5112941;28;20440;-69
2023/04/23 05:07:34;;;;;;;63.38;37.28;;;8.80;99.90;;;;;;5108767;28;20067;-69
2023/04/23 05:09:59;;;;;;;65.35;39.13;;;8.90;99.90;;;;;;5103179;28;20043;-69
2023/04/23 05:12:25;;;;;;;58.15;35.65;;;8.90;99.90;;;;;;5075065;28;20377;-69
2023/04/23 05:14:51;;;;;;;61.80;38.85;;;8.90;99.90;;;;;;5090352;28;20042;-70
2023/04/23 05:17:16;;;;;;;62.22;36.60;;;8.90;99.90;;;;;;5127748;27;20031;-69
2023/04/23 05:19:42;;;;;;;58.13;32.90;;;8.90;99.90;;;;;;5106215;28;20027;-69
2023/04/23 05:22:07;;;;;;;60.53;35.85;;;9.00;99.90;;;;;;5110074;28;20388;-69
2023/04/23 05:24:33;;;;;;;61.85;37.67;;;9.00;99.90;;;;;;5110129;28;20062;-70
2023/04/23 05:26:58;;;;;;;56.53;32.63;;;9.00;99.90;;;;;;5097419;27;20063;-70
2023/04/23 05:29:24;;;;;;;65.05;38.97;;;9.10;99.90;;;;;;5075526;28;20093;-69
2023/04/23 05:31:49;;;;;;;59.70;36.45;;;9.10;99.90;;;;;;5102948;28;20035;-69
2023/04/23 05:34:15;;;;;;;59.40;36.22;;;9.10;99.90;;;;;;5079411;28;20040;-69
2023/04/23 05:36:41;;;;;;;59.53;35.90;;;9.00;99.90;;;;;;5085106;28;20071;-69
2023/04/23 05:39:06;;;;;;;64.97;40.10;;;9.10;99.90;;;;;;5114064;27;20042;-70
2023/04/23 05:41:32;;;;;;;61.72;36.10;;;9.00;99.90;;;;;;5127893;27;20444;-70
2023/04/23 05:43:57;;;;;;;62.72;37.25;;;9.10;99.90;;;;;;5112623;27;20089;-70
2023/04/23 05:46:23;;;;;;;63.22;39.70;;;9.10;99.90;;;;;;5088756;28;20043;-69
2023/04/23 05:48:48;;;;;;;62.40;36.95;;;9.20;99.90;;;;;;5085583;28;20046;-70
2023/04/23 05:51:14;;;;;;;62.35;38.90;;;9.20;99.90;;;;;;5089005;28;20115;-69
2023/04/23 05:53:39;;;;;;;67.20;39.97;;;9.20;99.90;;;;;;5090807;28;20043;-70
2023/04/23 05:56:05;;;;;;;65.32;40.83;;;9.20;99.90;;;;;;5092814;28;20091;-69
2023/04/23 05:58:31;;;;;;;64.10;39.30;;;9.30;99.90;;;;;;5109454;28;20043;-69
2023/04/23 06:00:56;;;;;;;60.58;35.05;;;9.20;99.90;;;;;;5094362;28;20063;-69
2023/04/23 06:03:22;;;;;;;67.50;41.92;;;9.30;99.90;;;;;;5105568;28;20388;-69
2023/04/23 06:05:47;;;;;;;69.13;39.95;;;9.40;99.90;;;;;;5093077;28;20031;-70
2023/04/23 06:08:13;;;;;;;69.18;41.72;;;9.30;99.90;;;;;;5087820;28;20119;-70
2023/04/23 06:10:39;;;;;;;69.78;39.58;;;9.50;99.90;;;;;;5094488;28;20033;-69
2023/04/23 06:13:04;;;;;;;62.45;39.97;;;9.50;99.90;;;;;;5108901;28;20058;-69
2023/04/23 06:15:30;;;;;;;68.95;42.13;;;9.60;99.90;;;;;;5093424;28;20432;-69
2023/04/23 06:17:55;;;;;;;61.90;36.83;;;9.50;99.90;;;;;;5108285;28;20492;-69
2023/04/23 06:20:21;;;;;;;61.80;35.40;;;9.60;99.90;;;;;;5126993;28;20032;-69
2023/04/23 06:22:47;;;;;;;60.75;35.13;;;9.80;99.90;;;;;;5108666;28;20039;-69
2023/04/23 06:25:12;;;;;;;49.63;30.25;;;9.80;99.90;;;;;;5086938;28;20494;-69
2023/04/23 06:27:38;;;;;;;60.45;36.13;;;9.80;99.90;;;;;;5115559;28;20074;-69
2023/04/23 06:30:04;;;;;;;66.75;38.45;;;9.90;99.90;;;;;;5104455;28;20047;-69
2023/04/23 06:32:29;;;;;;;60.28;37.83;;;10.00;99.90;;;;;;5112456;28;20138;-69
2023/04/23 06:34:55;;;;;;;60.38;36.47;;;10.10;99.90;;;;;;5094578;28;20531;-69
2023/04/23 06:37:21;;;;;;;59.28;36.08;;;10.10;99.90;;;;;;5117940;27;20423;-69
2023/04/23 06:39:46;;;;;;;53.53;33.08;;;10.20;99.90;;;;;;5097082;27;20081;-67
2023/04/23 06:42:12;;;;;;;52.33;30.70;;;10.20;99.90;;;;;;5094067;28;20040;-68
2023/04/23 06:44:37;;;;;;;51.17;32.65;;;10.40;99.90;;;;;;5104847;28;20061;-68
2023/04/23 06:47:03;;;;;;;47.63;28.80;;;10.40;99.90;;;;;;5092979;28;20471;-68
2023/04/23 06:49:29;;;;;;;50.80;33.22;;;10.60;99.90;;;;;;5124701;27;21690;-68
2023/04/23 06:51:54;;;;;;;55.33;36.85;;;10.50;99.90;;;;;;5094418;28;20028;-68
2023/04/23 06:54:20;;;;;;;54.28;34.42;;;10.50;99.90;;;;;;5077876;28;20165;-68
2023/04/23 06:56:46;;;;;;;52.20;35.03;;;10.60;99.90;;;;;;5093279;28;20051;-68
2023/04/23 06:59:11;;;;;;;52.47;31.55;;;10.60;99.90;;;;;;5096917;28;20540;-69
2023/04/23 07:01:37;;;;;;;52.33;33.40;;;10.70;99.90;;;;;;5112919;27;20119;-68
2023/04/23 07:04:04;;;;;;;47.90;30.73;;;10.90;99.90;;;;;;5076875;28;20512;-68
2023/04/23 07:06:30;;;;;;;44.17;28.63;;;11.00;99.90;;;;;;5095830;28;20194;-68
2023/04/23 07:08:55;;;;;;;38.53;23.48;;;11.20;99.90;;;;;;5107909;28;20036;-68
2023/04/23 07:11:21;;;;;;;45.85;30.83;;;11.30;99.90;;;;;;5111133;28;20057;-68
2023/04/23 07:13:46;;;;;;;45.47;27.60;;;11.40;99.90;;;;;;5114980;28;20040;-69
2023/04/23 07:16:12;;;;;;;43.35;28.05;;;11.40;99.90;;;;;;5110205;28;20043;-69
2023/04/23 07:18:37;;;;;;;44.08;28.20;;;11.40;99.90;;;;;;5095431;28;20503;-69
2023/04/23 07:21:03;;;;;;;48.22;29.92;;;11.40;99.90;;;;;;5129689;27;20043;-69
2023/04/23 07:23:29;;;;;;;42.97;29.45;;;11.40;99.90;;;;;;5115228;28;20039;-69
2023/04/23 07:25:54;;;;;;;42.80;28.67;;;11.40;99.90;;;;;;5113453;28;20036;-69
2023/04/23 07:28:20;;;;;;;44.20;28.95;;;11.60;99.90;;;;;;5108935;28;20149;-69
2023/04/23 07:30:45;;;;;;;37.03;22.88;;;11.70;99.90;;;;;;5111442;28;20039;-69
2023/04/23 07:33:11;;;;;;;44.67;29.60;;;11.80;99.90;;;;;;5114309;28;20127;-69
2023/04/23 07:35:36;;;;;;;44.05;30.15;;;11.90;99.90;;;;;;5111737;28;20491;-69
2023/04/23 07:38:03;;;;;;;43.58;28.73;;;11.90;99.90;;;;;;5100766;28;20044;-69
2023/04/23 07:40:28;;;;;;;44.00;28.48;;;12.10;99.90;;;;;;5093307;28;20043;-69
2023/04/23 07:42:54;;;;;;;44.40;30.00;;;12.20;99.90;;;;;;5109808;27;20407;-69
2023/04/23 07:45:20;;;;;;;41.38;28.25;;;12.20;99.90;;;;;;5116794;27;20119;-72
2023/04/23 07:47:48;;;;;;;42.58;28.00;;;12.10;99.90;;;;;;5109173;28;20036;-69
2023/04/23 07:50:14;;;;;;;37.08;24.50;;;12.10;99.90;;;;;;5110413;28;20043;-69
2023/04/23 07:52:40;;;;;;;38.47;28.10;;;12.10;99.90;;;;;;5093983;28;20027;-69
2023/04/23 07:55:06;;;;;;;37.80;25.08;;;12.20;99.90;;;;;;5093281;28;20407;-69
2023/04/23 07:57:32;;;;;;;39.53;25.52;;;12.20;99.90;;;;;;5093409;28;20488;-69
2023/04/23 07:59:57;;;;;;;40.40;26.90;;;12.30;99.90;;;;;;5110751;28;20094;-69
2023/04/23 08:02:25;;;;;;;36.95;24.77;;;12.40;99.90;;;;;;5110432;28;20559;-69
2023/04/23 08:04:51;;;;;;;39.05;26.55;;;12.60;99.90;;;;;;5093378;28;20047;-69
2023/04/23 08:07:17;;;;;;;41.08;26.75;;;12.80;99.90;;;;;;5091271;28;20089;-69
2023/04/23 08:09:43;;;;;;;34.53;21.70;;;12.80;99.90;;;;;;5093927;28;20040;-69
2023/04/23 08:12:08;;;;;;;35.80;24.23;;;12.90;99.90;;;;;;5110209;27;20040;-69
2023/04/23 08:14:34;;;;;;;33.60;24.90;;;12.90;99.90;;;;;;5093404;28;20051;-69
2023/04/23 08:16:59;;;;;;;32.53;22.10;;;12.90;99.90;;;;;;5093710;28;20066;-69
2023/04/23 08:19:30;;;;;;;31.67;22.05;;;12.90;99.90;;;;;;5093104;28;20040;-69
2023/04/23 08:21:56;;;;;;;33.00;23.92;;;12.90;99.90;;;;;;5092984;28;20515;-69
2023/04/23 08:24:21;;;;;;;32.55;21.67;;;13.00;99.90;;;;;;5098758;28;20039;-69
2023/04/23 08:26:47;;;;;;;33.35;23.50;;;13.10;99.90;;;;;;5110936;28;20487;-69
2023/04/23 08:29:12;;;;;;;36.88;26.60;;;13.20;99.90;;;;;;5109623;28;20047;-70
2023/04/23 08:31:38;;;;;;;36.85;24.73;;;13.30;99.90;;;;;;5076345;28;20038;-69
2023/04/23 08:34:04;;;;;;;29.45;20.58;;;13.40;99.90;;;;;;5075951;28;20411;-70
2023/04/23 08:36:30;;;;;;;29.67;22.10;;;13.50;99.90;;;;;;5076087;28;20408;-69
2023/04/23 08:38:56;;;;;;;27.92;19.60;;;13.70;99.90;;;;;;5076100;28;20036;-69
2023/04/23 08:41:30;;;;;;;30.17;22.48;;;13.80;99.90;;;;;;5097576;28;20039;-69
2023/04/23 08:44:17;;;;;;;28.85;20.13;;;13.90;99.90;;;;;;5096342;28;20036;-70
2023/04/23 08:46:44;;;;;;;28.60;20.67;;;14.00;99.90;;;;;;5110901;28;20042;-69
2023/04/23 08:49:15;;;;;;;26.42;18.50;;;13.90;99.90;;;;;;5095885;28;20031;-69
2023/04/23 08:51:48;;;;;;;26.10;18.30;;;14.00;99.90;;;;;;5113204;28;20089;-69
2023/04/23 08:54:17;;;;;;;25.52;17.35;;;14.10;99.90;;;;;;5095940;28;20055;-70
2023/04/23 08:56:44;;;;;;;24.90;17.25;;;14.20;99.90;;;;;;5112196;28;20135;-69
2023/04/23 08:59:10;;;;;;;28.70;18.42;;;14.40;99.90;;;;;;5100673;28;20036;-70
2023/04/23 09:01:36;;;;;;;25.25;17.45;;;14.40;99.90;;;;;;5092483;28;20109;-70
2023/04/23 09:04:02;;;;;;;25.90;17.05;;;14.50;99.90;;;;;;5092237;28;20473;-70
2023/04/23 09:06:30;;;;;;;26.90;17.88;;;14.50;99.90;;;;;;5092172;28;20036;-70
2023/04/23 09:08:57;;;;;;;25.13;16.67;;;14.60;99.90;;;;;;5092534;28;20145;-69
2023/04/23 09:11:27;;;;;;;27.80;18.98;;;14.70;99.90;;;;;;5100737;28;20043;-69
2023/04/23 09:13:54;;;;;;;26.80;17.55;;;14.70;99.90;;;;;;5075126;28;20093;-70
2023/04/23 09:16:20;;;;;;;25.92;17.23;;;14.80;99.90;;;;;;5092213;28;20148;-69
2023/04/23 09:18:46;;;;;;;24.77;17.58;;;14.90;99.90;;;;;;5091954;28;20135;-70
2023/04/23 09:21:13;;;;;;;21.00;14.63;;;15.00;99.90;;;;;;5108873;28;20044;-70
2023/04/23 09:23:40;;;;;;;21.45;14.55;;;15.00;99.90;;;;;;5086650;28;20046;-70
2023/04/23 09:26:06;;;;;;;21.80;14.95;;;15.00;99.90;;;;;;5112316;28;20077;-70
2023/04/23 09:28:36;;;;;;;23.95;16.40;;;14.90;99.90;;;;;;5112160;28;20377;-70
2023/04/23 09:31:04;;;;;;;19.60;13.20;;;14.90;99.90;;;;;;5112873;28;20042;-70
2023/04/23 09:33:33;;;;;;;21.95;14.05;;;15.00;99.90;;;;;;5096681;28;20113;-69
2023/04/23 09:36:04;;;;;;;18.85;11.85;;;15.20;99.90;;;;;;5110234;28;20040;-69
2023/04/23 09:38:33;;;;;;;17.73;11.63;;;15.20;99.90;;;;;;5095635;28;20048;-69
2023/04/23 09:40:59;;;;;;;16.77;10.10;;;15.20;99.90;;;;;;5100825;28;20062;-70
2023/04/23 09:43:29;;;;;;;18.60;10.60;;;15.30;99.90;;;;;;5074732;28;20094;-69
2023/04/23 09:45:55;;;;;;;18.08;10.63;;;15.20;99.90;;;;;;5110957;28;20035;-69
2023/04/23 09:48:20;;;;;;;16.23;8.48;;;15.10;99.90;;;;;;5111004;28;20104;-69
2023/04/23 09:50:46;;;;;;;16.02;8.25;;;15.10;99.90;;;;;;5102013;28;20043;-68
2023/04/23 09:53:13;;;;;;;15.10;8.93;;;15.10;99.90;;;;;;5094403;28;20042;-69
2023/04/23 09:55:41;;;;;;;16.42;8.88;;;15.00;99.90;;;;;;5083531;28;20468;-69
2023/04/23 09:58:11;;;;;;;13.88;8.80;;;14.90;99.90;;;;;;5099328;28;20074;-69
2023/04/23 10:00:38;;;;;;;14.70;8.20;;;15.00;99.90;;;;;;5089353;28;20043;-69
2023/04/23 10:03:06;;;;;;;15.35;8.13;;;15.20;99.90;;;;;;5090545;28;20040;-69
2023/04/23 10:05:36;;;;;;;12.60;7.30;;;15.30;99.90;;;;;;5087879;28;20089;-69
2023/04/23 10:08:02;;;;;;;13.40;7.75;;;15.40;99.90;;;;;;5088504;28;20047;-69
2023/04/23 10:10:29;;;;;;;11.23;5.63;;;15.40;99.90;;;;;;5107998;28;20119;-69
2023/04/23 10:12:55;;;;;;;13.10;6.45;;;15.60;99.90;;;;;;5107256;28;20047;-69
2023/04/23 10:15:25;;;;;;;11.73;5.43;;;15.80;99.90;;;;;;5079221;28;20120;-69
2023/04/23 10:17:51;;;;;;;12.25;4.82;;;15.90;99.90;;;;;;5095726;28;20449;-69
2023/04/23 10:20:21;;;;;;;18.08;8.52;;;16.10;99.90;;;;;;5097164;28;20039;-69
2023/04/23 10:22:47;;;;;;;14.90;7.38;;;16.30;99.90;;;;;;5105159;28;20036;-69
2023/04/23 10:25:13;;;;;;;12.70;6.28;;;16.30;99.90;;;;;;5102999;28;20048;-69
2023/04/23 10:27:40;;;;;;;12.65;6.32;;;16.50;99.90;;;;;;5087268;28;20433;-69
2023/04/23 10:30:08;;;;;;;13.35;6.43;;;16.60;99.90;;;;;;5105144;28;20232;-69
2023/04/23 10:32:34;;;;;;;12.40;5.60;;;16.60;99.90;;;;;;5117197;27;20189;-69
2023/04/23 10:34:59;;;;;;;10.75;5.65;;;16.70;99.90;;;;;;5098114;28;20055;-69
2023/04/23 10:37:26;;;;;;;15.15;5.80;;;16.80;99.90;;;;;;5111325;28;20039;-69
2023/04/23 10:40:00;;;;;;;12.10;4.35;;;16.80;99.90;;;;;;5101870;28;20040;-69
2023/04/23 10:42:26;;;;;;;14.13;4.28;;;16.90;99.90;;;;;;5112974;28;20563;-69
2023/04/23 10:44:56;;;;;;;10.25;4.00;;;17.00;99.90;;;;;;5093296;28;20042;-69
2023/04/23 10:47:22;;;;;;;10.38;3.70;;;17.10;99.90;;;;;;5098440;28;20082;-69
2023/04/23 10:49:47;;;;;;;10.07;4.18;;;17.00;99.90;;;;;;5086242;27;20027;-69
2023/04/23 10:52:15;;;;;;;9.75;4.40;;;17.00;99.90;;;;;;5101235;28;20040;-69
2023/04/23 10:54:42;;;;;;;10.43;3.90;;;17.10;99.90;;;;;;5096683;28;20074;-69
2023/04/23 10:57:09;;;;;;;11.85;3.88;;;17.20;99.90;;;;;;5088043;28;20079;-69
2023/04/23 10:59:38;;;;;;;11.07;4.05;;;17.30;99.90;;;;;;5087757;28;20122;-69
2023/04/23 11:02:11;;;;;;;11.70;3.67;;;17.10;99.90;;;;;;5104971;28;20041;-69
2023/04/23 11:04:44;;;;;;;7.43;3.22;;;17.10;99.90;;;;;;5111295;28;20534;-69
2023/04/23 11:07:12;;;;;;;10.75;3.50;;;17.00;99.90;;;;;;5097413;28;20044;-69
2023/04/23 11:09:43;;;;;;;8.48;3.00;;;17.20;99.90;;;;;;5105789;28;20036;-69
2023/04/23 11:12:29;;;;;;;7.60;3.13;;;17.20;99.90;;;;;;5103384;28;20071;-69
2023/04/23 11:14:56;;;;;;;10.73;3.50;;;17.40;99.90;;;;;;5111039;28;20671;-69
2023/04/23 11:17:46;;;;;;;11.27;3.70;;;17.30;99.90;;;;;;5111007;28;20040;-69
2023/04/23 11:20:19;;;;;;;9.43;3.00;;;17.40;99.90;;;;;;5089817;28;20399;-67
2023/04/23 11:22:50;;;;;;;10.95;3.33;;;17.30;99.90;;;;;;5108571;28;20509;-67
2023/04/23 11:25:27;;;;;;;8.77;3.40;;;17.20;99.90;;;;;;5096356;28;20508;-68
2023/04/23 11:27:54;;;;;;;9.15;2.63;;;17.30;99.90;;;;;;5097421;28;20816;-67
2023/04/23 11:30:28;;;;;;;12.10;3.78;;;17.50;99.90;;;;;;5108327;28;20067;-67
2023/04/23 11:32:55;;;;;;;10.35;3.17;;;17.40;99.90;;;;;;5094500;28;20035;-68
2023/04/23 11:35:23;;;;;;;9.73;3.08;;;17.30;99.90;;;;;;5089604;28;20032;-68
2023/04/23 11:37:49;;;;;;;8.80;2.90;;;17.30;99.90;;;;;;5102358;28;20402;-67
2023/04/23 11:40:18;;;;;;;7.82;3.15;;;17.40;99.90;;;;;;5081876;28;20040;-68
2023/04/23 11:42:49;;;;;;;9.05;3.22;;;17.40;99.90;;;;;;5101958;28;20070;-68
2023/04/23 11:45:26;;;;;;;7.65;2.40;;;17.40;99.90;;;;;;5079639;28;20055;-68
2023/04/23 11:47:56;;;;;;;3.60;1.60;;;17.50;99.90;;;;;;5090794;28;20043;-67
2023/04/23 11:50:28;;;;;;;7.68;2.30;;;17.40;99.90;;;;;;5092909;28;20427;-68
2023/04/23 11:52:54;;;;;;;6.95;2.15;;;17.30;99.90;;;;;;5101144;28;20500;-68
2023/04/23 11:55:21;;;;;;;9.55;2.10;;;17.30;99.90;;;;;;5108745;28;20055;-68
2023/04/23 11:57:48;;;;;;;6.80;1.75;;;17.30;99.90;;;;;;5078636;28;20551;-68
2023/04/23 12:00:17;;;;;;;8.50;2.20;;;17.50;99.90;;;;;;5103196;28;20051;-68
2023/04/23 12:02:59;;;;;;;6.18;1.73;;;17.50;99.90;;;;;;5081937;28;20036;-68
2023/04/23 12:05:38;;;;;;;7.82;1.85;;;17.50;99.90;;;;;;5105585;28;20513;-68
2023/04/23 12:08:17;;;;;;;4.05;1.55;;;17.60;99.90;;;;;;5104457;28;20040;-68
2023/04/23 12:11:02;;;;;;;6.63;1.70;;;17.70;99.90;;;;;;5108700;28;20039;-68
2023/04/23 12:13:30;;;;;;;7.60;1.92;;;17.90;99.90;;;;;;5112481;27;20116;-69
2023/04/23 12:16:03;;;;;;;4.40;1.77;;;17.90;99.90;;;;;;5096630;28;20035;-69
2023/04/23 12:18:41;;;;;;;6.30;1.70;;;18.00;99.90;;;;;;5099483;28;20047;-69
2023/04/23 12:21:13;;;;;;;5.53;1.85;;;17.80;99.90;;;;;;5102253;28;20058;-68
2023/04/23 12:23:40;;;;;;;4.72;1.67;;;17.70;99.90;;;;;;5088912;28;20031;-68
2023/04/23 12:26:10;;;;;;;6.57;2.10;;;17.70;99.90;;;;;;5089304;28;20087;-68
2023/04/23 12:28:45;;;;;;;7.18;2.30;;;17.60;99.90;;;;;;5100189;28;20166;-68
2023/04/23 12:31:18;;;;;;;6.25;1.95;;;17.70;99.90;;;;;;5119771;27;20043;-69
2023/04/23 12:33:44;;;;;;;8.40;2.00;;;17.60;99.90;;;;;;5080139;28;20035;-69